Time;durP1;ratioP1;P1;durP2;ratioP2;P2;SDS_P1;SDS_P2;PMS_P1;PMS_P2;Temp;Humidity;BMP_temperature;BMP_pressure;BME280_temperature;BME280_humidity;BME280_pressure;Samples;Min_cycle;Max_cycle;Signal;HPM_P1;HPM_P2
2023/01/11 00:01:49;;;;;;;1.70;1.40;;;5.80;98.00;;;;;;5010448;28;20467;-74
2023/01/11 00:04:17;;;;;;;1.50;1.20;;;5.70;98.00;;;;;;4992679;28;20503;-74
2023/01/11 00:06:44;;;;;;;1.80;1.30;;;5.80;98.00;;;;;;5010256;28;20478;-73
2023/01/11 00:09:14;;;;;;;2.33;1.60;;;5.80;98.00;;;;;;5010133;28;20493;-74
2023/01/11 00:11:42;;;;;;;1.40;1.30;;;6.00;98.00;;;;;;5010405;28;20464;-74
2023/01/11 00:14:09;;;;;;;1.30;1.17;;;6.10;98.00;;;;;;4992717;28;20823;-74
2023/01/11 00:16:36;;;;;;;1.87;1.60;;;6.00;98.00;;;;;;5010168;28;20488;-74
2023/01/11 00:19:05;;;;;;;2.47;1.50;;;5.90;98.00;;;;;;5010007;28;20562;-74
2023/01/11 00:21:32;;;;;;;1.67;1.40;;;5.90;98.00;;;;;;5010129;28;20471;-74
2023/01/11 00:23:59;;;;;;;2.17;1.37;;;5.90;98.00;;;;;;5009864;28;20480;-74
2023/01/11 00:26:28;;;;;;;2.20;1.33;;;5.90;98.00;;;;;;5010003;28;20464;-74
2023/01/11 00:28:55;;;;;;;1.10;1.10;;;5.90;98.00;;;;;;5009597;28;20592;-74
2023/01/11 00:31:22;;;;;;;1.37;1.10;;;5.90;98.00;;;;;;5009753;28;20471;-74
2023/01/11 00:33:49;;;;;;;1.20;1.17;;;5.90;98.00;;;;;;5009907;28;20463;-74
2023/01/11 00:36:16;;;;;;;1.40;1.20;;;6.00;98.00;;;;;;4992411;28;20910;-74
2023/01/11 00:38:45;;;;;;;1.47;1.20;;;6.10;98.00;;;;;;4992437;28;21252;-74
2023/01/11 00:49:30;;;;;;;6.37;1.40;;;6.10;98.00;;;;;;5006443;28;20525;-74
2023/01/11 00:51:57;;;;;;;2.43;1.50;;;6.00;98.00;;;;;;5009666;28;20472;-74
2023/01/11 00:54:24;;;;;;;2.70;1.40;;;5.90;98.00;;;;;;5009698;28;20807;-74
2023/01/11 00:56:52;;;;;;;2.50;1.43;;;6.00;98.00;;;;;;4989134;28;20460;-74
2023/01/11 00:59:20;;;;;;;1.40;1.10;;;6.00;98.00;;;;;;5009773;28;20472;-75
2023/01/11 01:01:48;;;;;;;1.43;1.27;;;6.10;98.00;;;;;;5009719;28;20463;-74
2023/01/11 01:04:17;;;;;;;1.30;1.20;;;6.20;98.00;;;;;;5009622;28;20474;-74
2023/01/11 01:06:44;;;;;;;1.20;1.13;;;6.20;98.00;;;;;;5009362;28;20522;-75
2023/01/11 01:09:12;;;;;;;1.20;1.10;;;6.40;98.00;;;;;;5009787;28;20501;-74
2023/01/11 01:11:39;;;;;;;1.80;1.23;;;6.30;98.00;;;;;;5009339;28;20459;-74
2023/01/11 01:16:53;;;;;;;1.40;1.30;;;6.30;98.00;;;;;;5001775;28;20453;-74
2023/01/11 01:19:21;;;;;;;2.77;1.50;;;6.20;98.00;;;;;;5009105;28;20958;-74
2023/01/11 01:21:48;;;;;;;3.03;1.40;;;6.20;98.00;;;;;;5009343;28;20458;-74
2023/01/11 01:24:16;;;;;;;5.93;1.70;;;6.10;98.00;;;;;;5009326;28;20829;-74
2023/01/11 01:26:43;;;;;;;1.73;1.27;;;6.10;98.00;;;;;;5009470;28;20463;-74
2023/01/11 01:29:10;;;;;;;1.40;1.40;;;6.10;98.00;;;;;;5008959;28;20498;-74
2023/01/11 01:31:37;;;;;;;1.47;1.40;;;6.10;98.00;;;;;;5008958;28;20544;-74
2023/01/11 01:34:07;;;;;;;2.03;1.30;;;6.00;98.00;;;;;;5008704;28;20461;-74
2023/01/11 01:36:35;;;;;;;1.13;1.10;;;6.10;98.00;;;;;;5009244;28;20467;-74
2023/01/11 01:39:03;;;;;;;1.57;1.27;;;6.00;98.00;;;;;;5009032;28;20842;-74
2023/01/11 01:41:31;;;;;;;1.37;1.20;;;6.10;98.00;;;;;;5007396;28;20456;-74
2023/01/11 01:43:59;;;;;;;1.33;1.27;;;6.20;98.00;;;;;;5008844;28;20448;-74
2023/01/11 01:46:28;;;;;;;2.90;1.40;;;6.20;98.00;;;;;;5008838;28;20470;-74
2023/01/11 01:49:00;;;;;;;1.40;1.37;;;6.20;98.00;;;;;;4990295;28;20465;-74
2023/01/11 01:51:32;;;;;;;1.30;1.20;;;6.10;98.00;;;;;;5006388;28;20470;-74
2023/01/11 01:54:05;;;;;;;1.30;1.17;;;6.10;98.00;;;;;;5008931;28;21644;-74
2023/01/11 01:56:37;;;;;;;1.20;1.10;;;6.10;98.00;;;;;;4992172;28;20483;-74
2023/01/11 01:59:11;;;;;;;1.40;1.13;;;6.00;98.00;;;;;;5008975;28;20473;-74
2023/01/11 02:01:48;;;;;;;1.30;1.20;;;5.90;98.00;;;;;;5012034;28;20463;-74
2023/01/11 02:04:20;;;;;;;2.60;1.27;;;6.00;98.00;;;;;;5012404;28;20852;-74
2023/01/11 02:06:49;;;;;;;1.30;1.10;;;6.00;98.00;;;;;;5012760;28;20470;-74
2023/01/11 02:09:25;;;;;;;1.30;1.30;;;6.00;98.00;;;;;;5012427;28;20485;-74
2023/01/11 02:11:54;;;;;;;1.40;1.40;;;6.00;98.00;;;;;;5012739;28;20468;-74
2023/01/11 02:14:22;;;;;;;10.40;1.47;;;5.90;98.00;;;;;;5012610;28;20458;-74
2023/01/11 02:16:49;;;;;;;1.80;1.23;;;5.90;98.00;;;;;;5012711;28;20968;-74
2023/01/11 02:19:35;;;;;;;1.30;1.27;;;5.80;98.00;;;;;;5012513;28;21105;-73
2023/01/11 02:22:25;;;;;;;1.70;1.30;;;5.90;98.00;;;;;;5012718;28;20468;-74
2023/01/11 02:25:27;;;;;;;1.50;1.20;;;5.90;98.00;;;;;;5012418;28;20467;-74
2023/01/11 02:28:06;;;;;;;1.10;1.00;;;5.90;98.00;;;;;;4975563;28;20824;-74
2023/01/11 02:30:38;;;;;;;2.63;1.27;;;5.90;98.00;;;;;;5011998;28;20498;-74
2023/01/11 02:33:19;;;;;;;1.40;1.20;;;5.80;98.00;;;;;;5011669;28;20471;-74
2023/01/11 02:36:08;;;;;;;4.80;1.70;;;5.80;98.00;;;;;;5011906;28;20461;-74
2023/01/11 02:38:42;;;;;;;2.13;1.20;;;5.90;98.00;;;;;;5012057;28;20868;-74
2023/01/11 02:41:19;;;;;;;2.03;1.60;;;5.70;98.00;;;;;;5010434;28;20480;-74
2023/01/11 02:46:46;;;;;;;2.23;1.60;;;5.70;98.00;;;;;;5012105;28;20502;-73
2023/01/11 02:49:21;;;;;;;3.33;1.50;;;5.80;98.00;;;;;;5010536;28;20837;-75
2023/01/11 02:51:53;;;;;;;1.30;1.20;;;5.70;98.00;;;;;;5011780;28;20463;-74
2023/01/11 02:54:23;;;;;;;2.37;1.50;;;5.70;98.00;;;;;;5011359;28;20469;-74
2023/01/11 02:56:55;;;;;;;1.90;1.30;;;5.70;98.00;;;;;;5011729;28;20467;-74
2023/01/11 02:59:32;;;;;;;1.20;1.20;;;5.80;98.00;;;;;;5011228;28;20877;-74
2023/01/11 03:02:00;;;;;;;2.53;1.23;;;5.80;98.00;;;;;;4994869;28;20568;-74
2023/01/11 03:04:40;;;;;;;2.20;1.43;;;5.70;98.00;;;;;;5011226;28;20514;-73
2023/01/11 03:07:23;;;;;;;1.50;1.17;;;5.80;98.00;;;;;;4975812;28;20526;-74
2023/01/11 03:10:02;;;;;;;1.10;1.00;;;6.00;98.00;;;;;;5009537;28;20500;-74
2023/01/11 03:12:58;;;;;;;2.57;1.23;;;5.90;98.00;;;;;;5010455;28;20479;-74
2023/01/11 03:15:48;;;;;;;1.40;1.17;;;5.90;98.00;;;;;;5004886;28;21286;-74
2023/01/11 03:18:30;;;;;;;1.23;1.23;;;5.80;98.00;;;;;;5001289;28;20478;-74
2023/01/11 03:21:07;;;;;;;1.47;1.30;;;5.80;98.00;;;;;;5011602;28;21045;-74
2023/01/11 03:23:45;;;;;;;1.43;1.00;;;5.80;98.00;;;;;;5011055;28;20508;-74
2023/01/11 03:26:18;;;;;;;1.50;1.13;;;5.80;98.00;;;;;;5011552;28;20467;-74
2023/01/11 03:28:53;;;;;;;1.10;1.00;;;5.80;98.00;;;;;;5002792;28;20493;-74
2023/01/11 03:31:30;;;;;;;1.30;1.20;;;5.90;98.00;;;;;;5010775;28;20501;-74
2023/01/11 03:34:01;;;;;;;1.80;1.60;;;5.80;98.00;;;;;;5010843;28;20606;-74
2023/01/11 03:36:34;;;;;;;1.70;1.33;;;6.00;98.00;;;;;;5010790;28;20482;-74
2023/01/11 03:39:08;;;;;;;3.27;1.70;;;6.20;98.00;;;;;;5010486;28;20798;-73
2023/01/11 03:41:40;;;;;;;1.40;1.30;;;6.30;98.00;;;;;;5009006;28;20466;-73
2023/01/11 03:44:11;;;;;;;1.40;1.30;;;6.40;98.00;;;;;;5010181;28;20471;-74
2023/01/11 03:46:45;;;;;;;3.53;1.60;;;6.40;98.00;;;;;;5010410;28;20458;-74
2023/01/11 03:49:16;;;;;;;2.00;1.47;;;6.20;98.00;;;;;;5009306;28;20964;-75
2023/01/11 03:51:45;;;;;;;1.60;1.30;;;6.00;98.00;;;;;;5009605;28;20506;-74
2023/01/11 03:54:19;;;;;;;2.17;1.43;;;6.00;98.00;;;;;;5010445;28;20474;-73
2023/01/11 03:56:53;;;;;;;1.40;1.30;;;5.90;98.00;;;;;;5010206;28;20873;-74
2023/01/11 03:59:21;;;;;;;2.90;1.60;;;5.90;98.00;;;;;;5010531;28;20455;-74
2023/01/11 04:01:52;;;;;;;1.60;1.27;;;5.80;98.00;;;;;;5010447;28;20976;-74
2023/01/11 04:04:19;;;;;;;1.43;1.17;;;5.80;98.00;;;;;;5010241;28;20487;-74
2023/01/11 04:06:49;;;;;;;1.80;1.70;;;5.90;98.00;;;;;;4992978;28;20451;-74
2023/01/11 04:09:16;;;;;;;2.50;1.27;;;5.90;98.00;;;;;;5010634;28;20464;-74
2023/01/11 04:11:45;;;;;;;1.20;1.00;;;5.80;98.00;;;;;;5010481;28;20503;-74
2023/01/11 04:14:12;;;;;;;1.27;1.20;;;5.80;98.00;;;;;;5009961;28;20471;-74
2023/01/11 04:16:39;;;;;;;1.20;1.20;;;5.80;98.00;;;;;;5010009;28;20463;-73
2023/01/11 04:19:08;;;;;;;2.13;1.30;;;5.90;98.00;;;;;;4992863;28;20514;-74
2023/01/11 04:21:36;;;;;;;1.90;1.67;;;5.90;98.00;;;;;;5009824;28;20461;-73
2023/01/11 04:24:03;;;;;;;1.77;1.57;;;6.00;98.00;;;;;;5009899;28;20468;-74
2023/01/11 04:26:30;;;;;;;2.93;1.60;;;6.20;98.00;;;;;;5009978;28;20482;-74
2023/01/11 04:28:57;;;;;;;1.30;1.20;;;6.20;98.00;;;;;;5009594;28;20458;-74
2023/01/11 04:31:24;;;;;;;1.53;1.40;;;6.30;98.00;;;;;;5009843;28;20848;-74
2023/01/11 04:33:51;;;;;;;1.80;1.30;;;6.20;98.00;;;;;;5009322;28;20452;-74
2023/01/11 04:36:20;;;;;;;1.63;1.53;;;6.20;98.00;;;;;;5009563;28;20477;-74
2023/01/11 04:38:47;;;;;;;3.03;1.57;;;6.20;98.00;;;;;;5009477;28;20462;-74
2023/01/11 04:43:59;;;;;;;1.70;1.60;;;6.10;98.00;;;;;;5010068;28;20446;-74
2023/01/11 04:46:26;;;;;;;2.63;1.27;;;6.00;98.00;;;;;;4992434;28;20452;-74
2023/01/11 04:48:55;;;;;;;1.73;1.47;;;6.00;98.00;;;;;;5009874;28;20490;-74
2023/01/11 04:51:23;;;;;;;1.40;1.20;;;6.00;98.00;;;;;;5007358;28;20533;-74
2023/01/11 04:53:50;;;;;;;1.50;1.13;;;6.00;98.00;;;;;;5009502;28;20472;-74
2023/01/11 04:56:18;;;;;;;1.70;1.30;;;6.00;98.00;;;;;;5009910;28;20460;-74
2023/01/11 04:58:46;;;;;;;1.30;1.20;;;6.00;98.00;;;;;;5009210;28;20468;-74
2023/01/11 05:01:17;;;;;;;1.30;1.20;;;6.00;98.00;;;;;;5009735;28;20454;-74
2023/01/11 05:03:53;;;;;;;5.33;1.73;;;6.00;98.00;;;;;;5009461;28;20467;-75
2023/01/11 05:06:21;;;;;;;1.50;1.30;;;6.10;98.00;;;;;;4990502;28;20463;-74
2023/01/11 05:08:49;;;;;;;1.93;1.43;;;6.00;98.00;;;;;;4990582;28;20476;-74
2023/01/11 05:11:17;;;;;;;3.13;1.30;;;6.10;98.00;;;;;;5009075;28;20492;-74
2023/01/11 05:13:44;;;;;;;1.80;1.40;;;6.00;98.00;;;;;;5009256;28;20465;-74
2023/01/11 05:16:14;;;;;;;2.07;1.10;;;6.00;98.00;;;;;;5009301;28;20459;-74
2023/01/11 05:18:42;;;;;;;1.20;1.20;;;6.00;98.00;;;;;;5009101;28;20488;-74
2023/01/11 05:21:09;;;;;;;1.17;1.03;;;6.10;98.00;;;;;;5009301;28;20802;-74
2023/01/11 05:23:38;;;;;;;1.80;1.40;;;6.00;98.00;;;;;;5009194;28;20494;-74
2023/01/11 05:26:08;;;;;;;1.40;1.10;;;6.00;98.00;;;;;;5009336;28;20470;-74
2023/01/11 05:28:36;;;;;;;1.97;1.33;;;6.00;98.00;;;;;;5008942;28;20475;-74
2023/01/11 05:31:03;;;;;;;1.20;1.10;;;5.90;98.00;;;;;;5009010;28;20495;-74
2023/01/11 05:33:30;;;;;;;1.10;1.10;;;6.00;98.00;;;;;;4991524;28;20456;-74
2023/01/11 05:35:58;;;;;;;1.70;1.30;;;6.00;98.00;;;;;;5011134;28;20463;-74
2023/01/11 05:38:25;;;;;;;1.30;1.10;;;6.10;98.00;;;;;;5012868;28;20509;-74
2023/01/11 05:40:57;;;;;;;1.10;1.00;;;6.20;98.00;;;;;;5011525;28;20443;-74
2023/01/11 05:45:27;;;;;;;1.10;1.00;;;6.20;98.00;;;;;;5012752;28;20471;-74
2023/01/11 05:46:19;;;;;;;1.30;1.20;;;6.20;98.00;;;;;;5012845;28;20798;-73
2023/01/11 05:48:47;;;;;;;1.10;1.00;;;6.10;98.00;;;;;;5012835;28;20578;-74
2023/01/11 05:51:14;;;;;;;1.30;1.10;;;6.10;98.00;;;;;;4992900;28;20791;-74
2023/01/11 05:53:41;;;;;;;1.13;1.07;;;6.10;98.00;;;;;;5012790;28;20782;-74
2023/01/11 05:56:09;;;;;;;1.20;1.13;;;6.20;98.00;;;;;;5012699;28;20463;-74
2023/01/11 05:58:37;;;;;;;1.87;1.30;;;6.40;98.00;;;;;;5012451;28;20468;-74
2023/01/11 06:01:04;;;;;;;1.20;1.10;;;6.50;98.00;;;;;;5012674;28;20456;-74
2023/01/11 06:03:31;;;;;;;1.30;1.30;;;6.40;98.00;;;;;;5012423;28;20471;-74
2023/01/11 06:05:59;;;;;;;1.20;1.00;;;6.30;98.00;;;;;;5012426;28;20459;-74
2023/01/11 06:08:27;;;;;;;1.63;1.33;;;6.30;98.00;;;;;;5012357;28;20461;-74
2023/01/11 06:10:55;;;;;;;1.30;1.20;;;6.20;98.00;;;;;;5012256;28;20495;-74
2023/01/11 06:13:26;;;;;;;1.73;1.20;;;6.10;98.00;;;;;;5012047;28;20472;-74
2023/01/11 06:15:58;;;;;;;1.20;1.20;;;6.20;98.00;;;;;;5012514;28;20472;-74
2023/01/11 06:18:27;;;;;;;1.30;1.20;;;6.10;98.00;;;;;;5012499;28;20469;-74
2023/01/11 06:20:55;;;;;;;1.30;1.20;;;6.10;98.00;;;;;;5012425;28;20467;-74
2023/01/11 06:23:23;;;;;;;1.53;1.23;;;6.00;98.00;;;;;;5012433;28;20461;-74
2023/01/11 06:25:50;;;;;;;1.40;1.20;;;6.00;98.00;;;;;;5012349;28;20469;-74
2023/01/11 06:28:17;;;;;;;1.20;1.10;;;5.90;98.00;;;;;;5012357;28;20465;-74
2023/01/11 06:30:50;;;;;;;1.30;1.10;;;5.90;98.00;;;;;;5012066;28;20508;-74
2023/01/11 06:33:20;;;;;;;2.10;1.60;;;6.00;98.00;;;;;;5012044;28;20464;-74
2023/01/11 06:35:47;;;;;;;1.43;1.27;;;6.00;98.00;;;;;;5011701;28;20464;-74
2023/01/11 06:38:16;;;;;;;1.20;1.00;;;5.90;98.00;;;;;;5012104;28;20514;-74
2023/01/11 06:40:52;;;;;;;1.40;1.10;;;5.80;98.00;;;;;;5010416;28;20479;-74
2023/01/11 06:43:20;;;;;;;1.10;1.10;;;5.80;98.00;;;;;;5011876;28;20471;-74
2023/01/11 06:45:49;;;;;;;1.30;1.23;;;5.80;98.00;;;;;;5011557;28;20505;-74
2023/01/11 06:48:17;;;;;;;1.67;1.40;;;6.00;98.00;;;;;;4993279;28;20928;-74
2023/01/11 06:50:47;;;;;;;1.70;1.40;;;6.20;98.00;;;;;;5014536;28;20892;-74
2023/01/11 06:53:15;;;;;;;1.67;1.20;;;6.10;98.00;;;;;;5014175;28;20464;-73
2023/01/11 06:55:42;;;;;;;1.77;1.40;;;6.10;98.00;;;;;;5014386;28;20463;-73
2023/01/11 06:58:09;;;;;;;1.73;1.27;;;5.90;98.00;;;;;;5014530;28;20547;-74
2023/01/11 07:00:37;;;;;;;1.30;1.10;;;5.60;98.00;;;;;;4996974;28;20469;-70
2023/01/11 07:03:04;;;;;;;1.60;1.50;;;5.60;98.00;;;;;;4996839;28;20477;-70
2023/01/11 07:05:33;;;;;;;1.50;1.20;;;5.60;98.00;;;;;;5014369;28;20463;-70
2023/01/11 07:08:03;;;;;;;2.43;1.33;;;5.50;98.00;;;;;;5014441;28;20486;-71
2023/01/11 07:10:30;;;;;;;1.60;1.53;;;5.40;98.00;;;;;;4996847;28;20532;-70
2023/01/11 07:12:57;;;;;;;1.10;1.00;;;5.40;98.00;;;;;;5014387;28;20847;-70
2023/01/11 07:15:24;;;;;;;1.77;1.30;;;5.20;98.00;;;;;;5014231;28;20497;-70
2023/01/11 07:17:54;;;;;;;1.20;1.10;;;5.20;98.00;;;;;;5014371;28;20992;-70
2023/01/11 07:20:22;;;;;;;1.73;1.33;;;5.30;98.00;;;;;;5014248;28;20823;-71
2023/01/11 07:22:50;;;;;;;1.67;1.50;;;5.30;98.00;;;;;;4996879;28;20466;-71
2023/01/11 07:25:19;;;;;;;2.33;1.50;;;5.40;98.00;;;;;;5014047;28;20463;-71
2023/01/11 07:27:46;;;;;;;3.10;1.40;;;5.60;98.00;;;;;;5013748;28;20459;-71
2023/01/11 07:30:14;;;;;;;1.27;1.10;;;5.70;98.00;;;;;;4996090;28;20459;-71
2023/01/11 07:32:41;;;;;;;1.40;1.30;;;5.60;98.00;;;;;;5014057;28;20548;-71
2023/01/11 07:35:09;;;;;;;30.67;1.60;;;5.50;98.00;;;;;;4980272;28;20525;-71
2023/01/11 07:37:40;;;;;;;1.30;1.20;;;5.40;98.00;;;;;;5013753;28;20472;-71
2023/01/11 07:40:08;;;;;;;1.70;1.40;;;5.30;98.00;;;;;;5013307;28;20489;-71
2023/01/11 07:45:21;;;;;;;1.23;1.23;;;5.40;98.00;;;;;;5013715;28;20788;-70
2023/01/11 07:47:50;;;;;;;1.20;1.20;;;5.40;98.00;;;;;;5013385;28;20932;-70
2023/01/11 07:50:20;;;;;;;2.57;1.87;;;5.40;98.00;;;;;;5012929;28;20554;-71
2023/01/11 07:52:48;;;;;;;3.43;1.77;;;5.50;98.00;;;;;;5012648;28;20494;-70
2023/01/11 07:55:15;;;;;;;1.50;1.43;;;5.80;98.00;;;;;;5012616;28;20451;-71
2023/01/11 07:57:44;;;;;;;2.80;1.87;;;5.90;98.00;;;;;;5012193;28;20461;-71
2023/01/11 08:00:12;;;;;;;2.40;1.33;;;5.80;98.00;;;;;;4995067;28;20958;-71
2023/01/11 08:02:39;;;;;;;2.07;1.70;;;5.70;98.00;;;;;;5012286;28;20861;-71
2023/01/11 08:05:07;;;;;;;1.50;1.40;;;5.70;98.00;;;;;;5012419;28;20475;-71
2023/01/11 08:07:34;;;;;;;3.67;1.33;;;5.70;98.00;;;;;;5012408;28;20463;-71
2023/01/11 08:10:02;;;;;;;1.43;1.30;;;5.70;98.00;;;;;;5012384;28;20454;-71
2023/01/11 08:15:15;;;;;;;3.43;1.90;;;5.80;98.00;;;;;;5012599;28;20557;-71
2023/01/11 08:17:42;;;;;;;2.23;1.80;;;5.90;98.00;;;;;;5012378;28;20452;-71
2023/01/11 08:20:11;;;;;;;1.70;1.57;;;6.00;98.00;;;;;;5012470;28;20464;-71
2023/01/11 08:22:38;;;;;;;2.03;1.90;;;5.90;98.00;;;;;;4995031;28;20558;-71
2023/01/11 08:25:07;;;;;;;1.70;1.67;;;6.00;98.00;;;;;;5009608;28;20464;-71
2023/01/11 08:27:34;;;;;;;2.53;1.60;;;6.10;98.00;;;;;;5009059;28;20474;-71
2023/01/11 08:30:01;;;;;;;2.13;1.80;;;6.20;98.00;;;;;;5009541;28;20489;-71
2023/01/11 08:32:30;;;;;;;3.00;1.80;;;6.30;98.00;;;;;;5009287;28;20492;-71
2023/01/11 08:34:57;;;;;;;1.47;1.27;;;6.40;98.00;;;;;;5009404;28;20485;-71
2023/01/11 08:37:24;;;;;;;2.23;1.60;;;6.50;98.00;;;;;;5009306;28;20518;-71
2023/01/11 08:39:51;;;;;;;1.90;1.50;;;6.40;98.00;;;;;;5009643;28;20464;-71
2023/01/11 08:42:18;;;;;;;2.37;1.50;;;6.40;98.00;;;;;;5009366;28;20821;-71
2023/01/11 08:44:45;;;;;;;1.30;1.20;;;6.40;98.00;;;;;;5009371;28;20462;-71
2023/01/11 08:47:12;;;;;;;1.40;1.20;;;6.50;98.00;;;;;;4991745;28;20480;-70
2023/01/11 08:49:41;;;;;;;1.63;1.43;;;6.60;98.00;;;;;;5007228;28;20471;-70
2023/01/11 08:52:13;;;;;;;2.93;1.83;;;6.80;98.00;;;;;;5009329;28;20530;-72
2023/01/11 08:54:40;;;;;;;1.83;1.33;;;6.90;98.00;;;;;;5009222;28;20861;-72
2023/01/11 08:57:07;;;;;;;1.20;1.20;;;7.00;98.00;;;;;;5009480;28;20468;-73
2023/01/11 08:59:34;;;;;;;2.13;1.57;;;7.10;98.00;;;;;;5009280;28;20474;-71
2023/01/11 09:02:03;;;;;;;1.63;1.57;;;7.10;98.00;;;;;;5009314;28;20556;-67
2023/01/11 09:04:32;;;;;;;3.50;2.17;;;7.00;98.00;;;;;;5009358;28;20488;-74
2023/01/11 09:07:02;;;;;;;5.43;2.00;;;7.10;98.00;;;;;;5010174;28;20464;-74
2023/01/11 09:09:30;;;;;;;2.03;1.43;;;7.10;98.00;;;;;;5008944;28;20969;-74
2023/01/11 09:11:59;;;;;;;1.57;1.40;;;7.20;98.00;;;;;;5010102;28;20617;-74
2023/01/11 09:14:28;;;;;;;2.90;1.80;;;7.20;98.00;;;;;;5004256;28;20466;-74
2023/01/11 09:16:58;;;;;;;5.50;2.53;;;7.20;98.00;;;;;;5009396;28;21004;-74
2023/01/11 09:19:25;;;;;;;2.27;1.87;;;7.40;98.00;;;;;;4991134;28;20458;-73
2023/01/11 09:21:55;;;;;;;5.23;1.90;;;7.50;98.00;;;;;;5008708;28;20493;-74
2023/01/11 09:24:24;;;;;;;4.30;2.60;;;7.60;98.00;;;;;;5008566;28;20462;-74
2023/01/11 09:26:51;;;;;;;5.10;2.40;;;7.60;98.00;;;;;;5007805;28;20959;-74
2023/01/11 09:29:18;;;;;;;2.50;2.00;;;7.60;98.00;;;;;;5008978;28;20469;-73
2023/01/11 09:31:46;;;;;;;4.60;2.30;;;7.60;98.00;;;;;;5008806;28;20543;-74
2023/01/11 09:34:13;;;;;;;3.27;2.00;;;7.50;98.00;;;;;;5008769;28;20459;-74
2023/01/11 09:36:40;;;;;;;2.97;2.17;;;7.50;98.00;;;;;;5008673;28;20447;-75
2023/01/11 09:39:10;;;;;;;2.37;2.20;;;7.50;98.00;;;;;;4988289;28;20465;-74
2023/01/11 09:42:07;;;;;;;2.40;1.90;;;7.40;98.00;;;;;;5008611;28;20474;-73
2023/01/11 09:44:41;;;;;;;4.13;2.07;;;7.50;98.00;;;;;;4990841;28;20478;-73
2023/01/11 09:47:18;;;;;;;3.10;2.13;;;7.40;98.00;;;;;;5008396;28;20494;-74
2023/01/11 09:49:51;;;;;;;3.60;2.30;;;7.40;98.00;;;;;;5006312;28;20460;-73
2023/01/11 09:52:27;;;;;;;4.93;2.57;;;7.50;98.00;;;;;;5008372;28;20492;-73
2023/01/11 09:54:55;;;;;;;3.00;2.50;;;7.50;98.00;;;;;;4991381;28;20459;-73
2023/01/11 09:57:36;;;;;;;3.20;2.40;;;7.60;98.00;;;;;;5008236;28;20838;-73
2023/01/11 10:00:15;;;;;;;3.23;2.50;;;7.50;98.00;;;;;;5008378;28;20780;-73
2023/01/11 10:02:58;;;;;;;3.53;2.27;;;7.50;98.00;;;;;;5008459;28;20468;-74
2023/01/11 10:05:45;;;;;;;3.10;2.03;;;7.50;98.00;;;;;;5008181;28;20488;-73
2023/01/11 10:08:39;;;;;;;3.40;2.30;;;7.60;98.00;;;;;;5008065;28;20462;-74
2023/01/11 10:11:22;;;;;;;2.53;2.03;;;7.70;98.00;;;;;;5008262;28;20461;-73
2023/01/11 10:13:59;;;;;;;5.53;2.10;;;7.60;98.00;;;;;;5008263;28;20456;-74
2023/01/11 10:16:35;;;;;;;3.13;2.20;;;7.70;98.00;;;;;;5008421;28;20480;-75
2023/01/11 10:19:12;;;;;;;2.10;1.60;;;7.90;98.00;;;;;;5008360;28;20463;-71
2023/01/11 10:21:45;;;;;;;1.60;1.50;;;8.00;98.00;;;;;;5009669;28;20838;-71
2023/01/11 10:24:21;;;;;;;5.20;2.37;;;8.10;98.00;;;;;;5011891;28;20501;-71
2023/01/11 10:26:50;;;;;;;3.37;2.00;;;8.10;98.00;;;;;;4990087;28;20580;-71
2023/01/11 10:32:44;;;;;;;3.00;2.13;;;8.00;98.00;;;;;;4983810;28;20555;-71
2023/01/11 10:35:40;;;;;;;4.13;2.60;;;8.00;98.00;;;;;;5005934;28;20465;-71
2023/01/11 10:38:35;;;;;;;3.00;2.00;;;7.90;98.00;;;;;;5011083;28;20462;-72
2023/01/11 10:41:18;;;;;;;1.60;1.60;;;7.90;98.00;;;;;;5008138;28;20515;-72
2023/01/11 10:43:49;;;;;;;4.50;2.30;;;7.90;98.00;;;;;;5011303;28;21188;-71
2023/01/11 10:46:20;;;;;;;1.73;1.70;;;8.00;98.00;;;;;;5010323;28;20480;-72
2023/01/11 10:48:47;;;;;;;2.30;1.57;;;8.00;98.00;;;;;;5011416;28;20469;-71
2023/01/11 10:54:14;;;;;;;4.23;2.03;;;8.30;98.00;;;;;;5010524;28;20456;-72
2023/01/11 10:56:57;;;;;;;2.23;1.70;;;8.30;98.00;;;;;;5011124;28;20873;-71
2023/01/11 10:59:42;;;;;;;2.60;1.20;;;8.50;98.00;;;;;;5011253;28;20460;-71
2023/01/11 11:02:26;;;;;;;1.30;1.13;;;8.70;98.00;;;;;;5003762;28;20455;-71
2023/01/11 11:05:08;;;;;;;3.50;1.80;;;8.80;98.00;;;;;;5010527;28;20995;-71
2023/01/11 11:07:43;;;;;;;1.63;1.30;;;8.90;98.00;;;;;;5011269;28;20554;-71
2023/01/11 11:10:17;;;;;;;1.40;1.30;;;9.10;98.00;;;;;;5010750;28;20454;-71
2023/01/11 11:12:53;;;;;;;1.10;1.00;;;9.30;98.00;;;;;;5010283;28;20497;-71
2023/01/11 11:15:24;;;;;;;1.30;1.10;;;9.40;98.00;;;;;;5010565;28;20466;-71
2023/01/11 11:17:54;;;;;;;1.70;1.10;;;9.40;98.00;;;;;;4989733;28;20916;-71
2023/01/11 11:20:24;;;;;;;1.60;1.20;;;9.50;98.00;;;;;;5010715;28;20467;-71
2023/01/11 11:22:51;;;;;;;1.30;1.20;;;9.60;98.00;;;;;;5011286;28;20837;-71
2023/01/11 11:25:26;;;;;;;1.80;1.20;;;9.70;98.00;;;;;;5009339;28;20954;-72
2023/01/11 11:27:58;;;;;;;1.50;1.20;;;9.80;98.00;;;;;;5010579;28;20516;-72
2023/01/11 11:30:31;;;;;;;2.13;1.40;;;9.90;98.00;;;;;;5010764;28;20483;-73
2023/01/11 11:33:03;;;;;;;1.53;1.03;;;10.00;98.00;;;;;;5009637;28;20503;-72
2023/01/11 11:35:35;;;;;;;1.20;1.10;;;10.00;98.00;;;;;;5010232;28;20482;-72
2023/01/11 11:38:03;;;;;;;1.50;1.17;;;10.00;98.00;;;;;;5010190;28;20479;-72
2023/01/11 11:40:33;;;;;;;2.67;1.20;;;10.10;98.00;;;;;;5010125;28;20977;-71
2023/01/11 11:43:17;;;;;;;1.40;1.20;;;10.20;98.00;;;;;;5010191;28;20467;-71
2023/01/11 11:45:52;;;;;;;1.30;1.20;;;10.20;98.00;;;;;;5009862;28;20495;-71
2023/01/11 11:48:21;;;;;;;1.13;1.00;;;10.20;98.00;;;;;;5010083;28;20471;-72
2023/01/11 11:50:49;;;;;;;1.20;1.10;;;10.10;98.00;;;;;;5008003;28;20515;-71
2023/01/11 11:53:32;;;;;;;1.57;1.40;;;10.20;98.00;;;;;;5009902;28;20505;-71
2023/01/11 11:56:05;;;;;;;1.50;1.00;;;10.20;98.00;;;;;;5009979;28;20478;-73
2023/01/11 11:58:32;;;;;;;1.50;1.30;;;10.20;98.00;;;;;;5009931;28;20464;-72
2023/01/11 12:01:01;;;;;;;2.03;1.10;;;10.30;98.00;;;;;;5009688;28;20472;-71
2023/01/11 12:03:32;;;;;;;1.83;1.20;;;10.30;98.00;;;;;;5009647;28;20542;-73
2023/01/11 12:06:02;;;;;;;1.20;1.03;;;10.30;98.00;;;;;;5009497;28;20463;-72
2023/01/11 12:08:31;;;;;;;1.37;1.03;;;10.30;98.00;;;;;;5009662;28;20804;-73
2023/01/11 12:11:01;;;;;;;1.60;1.20;;;10.40;98.00;;;;;;5009725;28;20482;-71
2023/01/11 12:13:33;;;;;;;1.20;1.10;;;10.40;98.00;;;;;;5009563;28;20500;-72
2023/01/11 12:16:03;;;;;;;1.50;1.20;;;10.40;98.00;;;;;;4989118;28;20754;-72
2023/01/11 12:18:40;;;;;;;1.63;1.07;;;10.50;98.00;;;;;;5009942;28;20831;-71
2023/01/11 12:21:19;;;;;;;1.30;1.17;;;10.50;98.00;;;;;;5009359;28;20478;-73
2023/01/11 12:23:46;;;;;;;1.20;1.10;;;10.60;98.00;;;;;;4992602;28;20597;-73
2023/01/11 12:26:21;;;;;;;1.30;1.10;;;10.60;98.00;;;;;;4990448;28;20453;-71
2023/01/11 12:29:22;;;;;;;1.30;1.20;;;10.60;98.00;;;;;;5010032;28;20556;-72
2023/01/11 12:32:02;;;;;;;1.20;1.10;;;10.50;98.00;;;;;;5009443;28;20954;-72
2023/01/11 12:34:49;;;;;;;1.30;1.10;;;10.60;98.00;;;;;;5009536;28;20459;-72
2023/01/11 12:37:25;;;;;;;1.33;1.20;;;10.70;98.00;;;;;;5009096;28;20488;-71
2023/01/11 12:40:01;;;;;;;1.10;1.10;;;10.70;98.00;;;;;;5009139;28;20472;-72
2023/01/11 12:42:47;;;;;;;1.30;1.17;;;10.70;98.00;;;;;;4991591;28;20466;-72
2023/01/11 12:45:23;;;;;;;1.43;1.27;;;10.70;98.00;;;;;;5008245;28;20839;-72
2023/01/11 12:48:12;;;;;;;1.30;1.10;;;10.70;98.00;;;;;;5009164;28;20463;-72
2023/01/11 12:50:52;;;;;;;1.40;1.30;;;10.70;98.00;;;;;;5006768;28;20470;-72
2023/01/11 12:53:34;;;;;;;1.60;1.20;;;10.70;98.00;;;;;;5008951;28;20483;-71
2023/01/11 12:56:22;;;;;;;2.83;1.20;;;10.80;98.00;;;;;;4975988;28;20521;-72
2023/01/11 12:58:53;;;;;;;1.10;1.07;;;10.80;98.00;;;;;;5008888;28;20459;-71
2023/01/11 13:01:50;;;;;;;1.20;1.00;;;10.90;98.00;;;;;;5008381;28;20463;-71
2023/01/11 13:04:33;;;;;;;1.50;1.20;;;10.90;98.00;;;;;;5008255;28;21004;-72
2023/01/11 13:07:11;;;;;;;1.70;1.23;;;10.90;98.00;;;;;;5008762;28;20483;-72
2023/01/11 13:09:51;;;;;;;1.10;1.00;;;10.90;98.00;;;;;;5008497;28;20485;-72
2023/01/11 13:12:23;;;;;;;1.10;1.00;;;11.00;98.00;;;;;;4991188;28;20462;-72
2023/01/11 13:15:01;;;;;;;1.20;1.10;;;11.00;98.00;;;;;;5008516;28;20469;-72
2023/01/11 13:17:34;;;;;;;1.40;1.00;;;11.00;98.00;;;;;;5008628;28;20478;-71
2023/01/11 13:20:17;;;;;;;1.30;1.10;;;11.00;98.00;;;;;;5008643;28;20463;-69
2023/01/11 13:22:50;;;;;;;1.10;1.03;;;11.10;98.00;;;;;;5009768;28;20466;-71
2023/01/11 13:25:21;;;;;;;1.20;1.00;;;11.00;98.00;;;;;;5009203;28;20843;-71
2023/01/11 13:27:50;;;;;;;1.30;1.20;;;11.00;98.00;;;;;;5006133;28;20469;-71
2023/01/11 13:30:23;;;;;;;1.10;1.00;;;11.00;98.00;;;;;;5009226;28;20467;-71
2023/01/11 13:32:54;;;;;;;1.30;1.03;;;10.90;98.00;;;;;;5009215;28;20486;-71
2023/01/11 13:35:34;;;;;;;1.13;1.10;;;10.90;98.00;;;;;;5008944;28;20479;-72
2023/01/11 13:38:11;;;;;;;1.10;1.00;;;10.80;98.00;;;;;;5009078;28;20478;-71
2023/01/11 13:40:45;;;;;;;1.10;1.00;;;10.80;98.00;;;;;;5009010;28;20458;-72
2023/01/11 13:43:22;;;;;;;2.00;1.10;;;10.80;98.00;;;;;;5008841;28;20452;-72
2023/01/11 13:46:02;;;;;;;1.20;1.10;;;10.80;98.00;;;;;;5009213;28;20459;-72
2023/01/11 13:48:32;;;;;;;2.10;1.17;;;10.80;98.00;;;;;;4988282;28;20499;-71